createdAt,value
2024-01-24T00:00:03.823Z,7.434
2024-01-24T00:01:03.908Z,7.434
2024-01-24T00:02:03.806Z,7.434
2024-01-24T00:03:03.840Z,7.434
2024-01-24T00:04:04.000Z,7.434
2024-01-24T00:05:03.909Z,7.434
2024-01-24T00:06:03.854Z,7.434
2024-01-24T00:07:03.894Z,7.434
2024-01-24T00:08:03.868Z,7.434
2024-01-24T00:09:03.872Z,7.434
2024-01-24T00:10:03.887Z,7.410
2024-01-24T00:11:03.894Z,7.434
2024-01-24T00:12:03.941Z,7.434
2024-01-24T00:13:03.956Z,7.434
2024-01-24T00:14:03.899Z,7.410
2024-01-24T00:15:03.912Z,7.434
2024-01-24T00:16:03.920Z,7.434
2024-01-24T00:17:03.927Z,7.410
2024-01-24T00:18:04.011Z,7.434
2024-01-24T00:19:04.070Z,7.434
2024-01-24T00:20:03.949Z,7.434
2024-01-24T00:21:03.964Z,7.410
2024-01-24T00:22:03.970Z,7.410
2024-01-24T00:23:03.976Z,7.410
2024-01-24T00:24:03.975Z,7.410
2024-01-24T00:25:03.985Z,7.429
2024-01-24T00:26:03.983Z,7.410
2024-01-24T00:27:03.984Z,7.410
2024-01-24T00:28:03.992Z,7.410
2024-01-24T00:29:03.996Z,7.410
2024-01-24T00:30:04.017Z,7.410
2024-01-24T00:31:04.072Z,7.410
2024-01-24T00:32:04.032Z,7.410
2024-01-24T00:33:04.069Z,7.410
2024-01-24T00:34:04.127Z,7.410
2024-01-24T00:35:04.054Z,7.410
2024-01-24T00:36:04.051Z,7.410
2024-01-24T00:37:04.068Z,7.410
2024-01-24T00:38:04.069Z,7.410
2024-01-24T00:39:04.080Z,7.410
2024-01-24T00:40:04.100Z,7.410
2024-01-24T00:41:04.096Z,7.410
2024-01-24T00:42:04.095Z,7.410
2024-01-24T00:43:04.093Z,7.434
2024-01-24T00:44:04.110Z,7.434
2024-01-24T00:45:04.125Z,7.434
2024-01-24T00:46:04.128Z,7.434
2024-01-24T00:47:04.126Z,7.434
2024-01-24T00:48:04.226Z,7.434
2024-01-24T00:49:04.273Z,7.434
2024-01-24T00:50:04.220Z,7.434
2024-01-24T00:51:04.152Z,7.434
2024-01-24T00:52:04.155Z,7.434
2024-01-24T00:53:04.159Z,7.434
2024-01-24T00:54:04.160Z,7.458
2024-01-24T00:55:04.163Z,7.514
2024-01-24T00:56:04.179Z,7.514
2024-01-24T00:57:04.186Z,7.514
2024-01-24T00:58:04.193Z,7.514
2024-01-24T00:59:04.226Z,7.476
2024-01-24T01:00:04.209Z,7.476
2024-01-24T01:01:04.322Z,7.458
2024-01-24T01:02:04.236Z,7.458
2024-01-24T01:03:04.249Z,7.458
2024-01-24T01:04:04.412Z,7.458
2024-01-24T01:05:04.280Z,7.458
2024-01-24T01:06:04.250Z,7.458
2024-01-24T01:07:04.247Z,7.434
2024-01-24T01:08:04.252Z,7.434
2024-01-24T01:09:04.267Z,7.434
2024-01-24T01:10:04.295Z,7.434
2024-01-24T01:11:04.286Z,7.434
2024-01-24T01:12:04.312Z,7.434
2024-01-24T01:13:04.344Z,7.434
2024-01-24T01:14:04.326Z,7.434
2024-01-24T01:15:04.327Z,7.434
2024-01-24T01:16:04.352Z,7.434
2024-01-24T01:17:04.348Z,7.458
2024-01-24T01:18:04.404Z,7.458
2024-01-24T01:19:04.523Z,7.458
2024-01-24T01:20:04.348Z,7.458
2024-01-24T01:21:04.350Z,7.458
2024-01-24T01:22:04.475Z,7.458
2024-01-24T01:23:04.381Z,7.458
2024-01-24T01:24:04.403Z,7.458
2024-01-24T01:25:04.401Z,7.458
2024-01-24T01:26:04.412Z,7.482
2024-01-24T01:27:04.414Z,7.482
2024-01-24T01:28:04.423Z,7.482
2024-01-24T01:29:04.438Z,7.482
2024-01-24T01:30:04.421Z,7.482
2024-01-24T01:31:04.435Z,7.482
2024-01-24T01:32:04.437Z,7.482
2024-01-24T01:33:04.496Z,7.482
2024-01-24T01:34:04.511Z,7.482
2024-01-24T01:35:04.461Z,7.482
2024-01-24T01:36:14.071Z,7.482
2024-01-24T01:37:04.516Z,7.505
2024-01-24T01:38:04.500Z,7.505
2024-01-24T01:39:04.505Z,7.505
2024-01-24T01:40:04.615Z,7.505
2024-01-24T01:41:04.512Z,7.505
2024-01-24T01:42:04.541Z,7.505
2024-01-24T01:43:04.523Z,7.524
2024-01-24T01:44:04.529Z,7.524
2024-01-24T01:45:04.533Z,7.585
2024-01-24T01:46:04.551Z,7.585
2024-01-24T01:47:04.552Z,7.585
2024-01-24T01:48:04.621Z,7.585
2024-01-24T01:49:04.650Z,7.585
2024-01-24T01:50:04.579Z,7.585
2024-01-24T01:51:04.578Z,7.585
2024-01-24T01:52:04.688Z,7.585
2024-01-24T01:53:04.589Z,7.609
2024-01-24T01:54:04.599Z,7.609
2024-01-24T01:55:04.607Z,7.585
2024-01-24T01:56:04.617Z,7.590
2024-01-24T01:57:04.610Z,7.590
2024-01-24T01:58:04.629Z,7.609
2024-01-24T01:59:04.624Z,7.609
2024-01-24T02:00:04.629Z,7.609
2024-01-24T02:01:04.732Z,7.633
2024-01-24T02:02:04.652Z,7.633
2024-01-24T02:03:04.710Z,7.614
2024-01-24T02:04:04.698Z,7.614
2024-01-24T02:05:04.673Z,7.614
2024-01-24T02:06:04.698Z,7.614
2024-01-24T02:07:04.777Z,7.614
2024-01-24T02:08:04.681Z,7.595
2024-01-24T02:09:04.699Z,7.633
2024-01-24T02:10:04.698Z,7.651
2024-01-24T02:11:04.713Z,7.675
2024-01-24T02:12:04.698Z,7.675
2024-01-24T02:13:04.708Z,7.675
2024-01-24T02:14:04.725Z,7.675
2024-01-24T02:15:04.739Z,7.675
2024-01-24T02:16:04.785Z,7.699
2024-01-24T02:17:04.760Z,7.699
2024-01-24T02:18:04.820Z,7.699
2024-01-24T02:19:04.855Z,7.699
2024-01-24T02:20:04.845Z,7.699
2024-01-24T02:21:04.801Z,7.699
2024-01-24T02:22:04.786Z,7.699
2024-01-24T02:23:04.795Z,7.699
2024-01-24T02:24:04.782Z,7.699
2024-01-24T02:25:04.806Z,7.699
2024-01-24T02:26:04.820Z,7.699
2024-01-24T02:27:04.821Z,7.699
2024-01-24T02:28:04.851Z,7.699
2024-01-24T02:29:04.839Z,7.699
2024-01-24T02:30:04.845Z,7.699
2024-01-24T02:31:04.850Z,7.722
2024-01-24T02:32:04.892Z,7.759
2024-01-24T02:33:04.987Z,7.759
2024-01-24T02:34:05.051Z,7.759
2024-01-24T02:35:04.873Z,7.778
2024-01-24T02:36:04.875Z,7.778
2024-01-24T02:37:04.880Z,7.778
2024-01-24T02:38:04.892Z,7.802
2024-01-24T02:39:04.897Z,7.802
2024-01-24T02:40:04.934Z,7.802
2024-01-24T02:41:04.925Z,7.802
2024-01-24T02:42:04.928Z,7.802
2024-01-24T02:43:04.944Z,7.802
2024-01-24T02:44:04.942Z,7.826
2024-01-24T02:45:04.949Z,7.826
2024-01-24T02:46:04.962Z,7.826
2024-01-24T02:47:04.958Z,7.826
2024-01-24T02:48:05.018Z,7.826
2024-01-24T02:49:05.037Z,7.826
2024-01-24T02:50:04.979Z,7.826
2024-01-24T02:51:05.005Z,7.844
2024-01-24T02:52:05.009Z,7.868
2024-01-24T02:53:05.033Z,7.905
2024-01-24T02:54:05.015Z,7.868
2024-01-24T02:55:05.028Z,7.905
2024-01-24T02:56:05.025Z,7.905
2024-01-24T02:57:05.032Z,7.905
2024-01-24T02:58:05.044Z,7.905
2024-01-24T02:59:05.053Z,7.905
2024-01-24T03:00:05.045Z,7.905
2024-01-24T03:01:05.215Z,7.905
2024-01-24T03:02:05.061Z,7.910
2024-01-24T03:03:05.077Z,7.929
2024-01-24T03:04:05.153Z,7.910
2024-01-24T03:05:05.084Z,7.910
2024-01-24T03:06:05.135Z,7.910
2024-01-24T03:07:05.217Z,7.934
2024-01-24T03:08:05.119Z,7.934
2024-01-24T03:09:05.115Z,7.934
2024-01-24T03:10:05.126Z,7.934
2024-01-24T03:11:05.123Z,7.915
2024-01-24T03:12:05.145Z,7.989
2024-01-24T03:13:05.163Z,7.971
2024-01-24T03:14:05.139Z,7.971
2024-01-24T03:15:05.143Z,7.989
2024-01-24T03:16:05.169Z,8.008
2024-01-24T03:17:05.169Z,8.050
2024-01-24T03:18:05.304Z,8.050
2024-01-24T03:19:05.295Z,8.050
2024-01-24T03:20:05.194Z,8.074
2024-01-24T03:21:05.196Z,8.074
2024-01-24T03:22:05.231Z,8.074
2024-01-24T03:23:05.854Z,8.074
2024-01-24T03:24:05.210Z,8.074
2024-01-24T03:25:05.285Z,8.074
2024-01-24T03:26:05.219Z,8.098
2024-01-24T03:27:05.228Z,8.098
2024-01-24T03:28:05.240Z,8.098
2024-01-24T03:29:05.260Z,8.159
2024-01-24T03:30:05.290Z,8.177
2024-01-24T03:31:05.282Z,8.177
2024-01-24T03:32:05.295Z,8.177
2024-01-24T03:33:05.390Z,8.177
2024-01-24T03:34:05.463Z,8.201
2024-01-24T03:35:05.413Z,8.201
2024-01-24T03:36:05.309Z,8.201
2024-01-24T03:37:05.346Z,8.201
2024-01-24T03:38:05.336Z,8.262
2024-01-24T03:39:05.336Z,8.262
2024-01-24T03:40:05.343Z,8.262
2024-01-24T03:41:05.360Z,8.262
2024-01-24T03:42:05.355Z,8.280
2024-01-24T03:43:05.366Z,8.286
2024-01-24T03:44:05.401Z,8.286
2024-01-24T03:45:05.379Z,8.286
2024-01-24T03:46:05.377Z,8.286
2024-01-24T03:47:05.379Z,8.286
2024-01-24T03:48:05.434Z,8.328
2024-01-24T03:49:05.482Z,8.365
2024-01-24T03:50:05.395Z,8.365
2024-01-24T03:51:05.402Z,8.389
2024-01-24T03:52:05.410Z,8.389
2024-01-24T03:53:05.416Z,8.389
2024-01-24T03:54:05.435Z,8.389
2024-01-24T03:55:05.465Z,8.389
2024-01-24T03:56:05.441Z,8.389
2024-01-24T03:57:05.445Z,8.389
2024-01-24T03:58:05.460Z,8.450
2024-01-24T03:59:05.459Z,8.450
2024-01-24T04:00:05.464Z,8.450
2024-01-24T04:01:05.542Z,8.474
2024-01-24T04:02:05.477Z,8.474
2024-01-24T04:03:05.499Z,8.474
2024-01-24T04:04:05.579Z,8.474
2024-01-24T04:05:05.493Z,8.474
2024-01-24T04:06:05.570Z,8.474
2024-01-24T04:07:05.627Z,8.474
2024-01-24T04:08:05.542Z,8.497
2024-01-24T04:09:05.583Z,8.497
2024-01-24T04:10:05.539Z,8.553
2024-01-24T04:11:05.555Z,8.553
2024-01-24T04:12:05.559Z,8.553
2024-01-24T04:13:05.569Z,8.553
2024-01-24T04:14:05.563Z,8.553
2024-01-24T04:15:05.570Z,8.577
2024-01-24T04:16:05.634Z,8.558
2024-01-24T04:17:05.582Z,8.577
2024-01-24T04:18:05.637Z,8.577
2024-01-24T04:19:05.685Z,8.558
2024-01-24T04:20:05.618Z,8.577
2024-01-24T04:21:05.615Z,8.558
2024-01-24T04:22:05.626Z,8.558
2024-01-24T04:23:05.640Z,8.577
2024-01-24T04:24:05.632Z,8.577
2024-01-24T04:25:05.644Z,8.595
2024-01-24T04:26:05.642Z,8.614
2024-01-24T04:27:05.656Z,8.614
2024-01-24T04:28:05.647Z,8.614
2024-01-24T04:29:05.674Z,8.614
2024-01-24T04:30:05.670Z,8.614
2024-01-24T04:31:05.722Z,8.614
2024-01-24T04:32:05.710Z,8.614
2024-01-24T04:33:05.757Z,8.614
2024-01-24T04:34:05.902Z,8.614
2024-01-24T04:35:05.768Z,8.614
2024-01-24T04:36:05.743Z,8.614
2024-01-24T04:37:05.741Z,8.614
2024-01-24T04:38:05.735Z,8.614
2024-01-24T04:39:05.745Z,8.637
2024-01-24T04:40:05.847Z,8.637
2024-01-24T04:41:05.769Z,8.614
2024-01-24T04:42:12.178Z,8.614
2024-01-24T04:43:05.811Z,8.674
2024-01-24T04:44:05.792Z,8.693
2024-01-24T04:45:05.810Z,8.693
2024-01-24T04:46:05.847Z,8.730
2024-01-24T04:47:05.812Z,8.730
2024-01-24T04:48:05.846Z,8.730
2024-01-24T04:49:05.895Z,8.730
2024-01-24T04:50:05.975Z,8.754
2024-01-24T04:51:05.840Z,8.754
2024-01-24T04:52:05.859Z,8.754
2024-01-24T04:53:05.842Z,8.754
2024-01-24T04:54:05.852Z,8.754
2024-01-24T04:55:05.869Z,8.754
2024-01-24T04:56:05.870Z,8.754
2024-01-24T04:57:05.882Z,8.754
2024-01-24T04:58:05.885Z,8.754
2024-01-24T04:59:05.893Z,8.778
2024-01-24T05:00:05.921Z,8.778
2024-01-24T05:01:05.981Z,8.778
2024-01-24T05:02:05.929Z,8.796
2024-01-24T05:03:05.981Z,8.796
2024-01-24T05:04:06.079Z,8.815
2024-01-24T05:05:05.920Z,8.815
2024-01-24T05:06:10.500Z,8.838
2024-01-24T05:07:05.938Z,8.838
2024-01-24T05:08:05.940Z,8.838
2024-01-24T05:09:05.954Z,8.838
2024-01-24T05:10:05.964Z,8.838
2024-01-24T05:11:05.972Z,8.838
2024-01-24T05:12:05.991Z,8.838
2024-01-24T05:13:05.986Z,8.838
2024-01-24T05:14:05.989Z,8.838
2024-01-24T05:15:05.996Z,8.862
2024-01-24T05:16:06.002Z,8.862
2024-01-24T05:17:06.011Z,8.862
2024-01-24T05:18:06.049Z,8.881
2024-01-24T05:19:06.114Z,8.881
2024-01-24T05:20:06.024Z,8.899
2024-01-24T05:21:06.038Z,8.899
2024-01-24T05:22:06.060Z,8.942
2024-01-24T05:23:06.056Z,8.923
2024-01-24T05:24:06.073Z,8.923
2024-01-24T05:25:06.077Z,8.923
2024-01-24T05:26:06.075Z,8.947
2024-01-24T05:27:06.091Z,8.947
2024-01-24T05:28:06.083Z,8.947
2024-01-24T05:29:06.089Z,8.947
2024-01-24T05:30:15.824Z,8.947
2024-01-24T05:31:06.161Z,8.971
2024-01-24T05:32:06.106Z,8.989
2024-01-24T05:33:06.165Z,9.026
2024-01-24T05:34:06.245Z,9.050
2024-01-24T05:35:06.145Z,9.050
2024-01-24T05:36:06.135Z,9.050
2024-01-24T05:37:06.178Z,9.050
2024-01-24T05:38:06.150Z,9.050
2024-01-24T05:39:06.158Z,9.050
2024-01-24T05:40:06.190Z,9.050
2024-01-24T05:41:06.164Z,9.050
2024-01-24T05:42:06.172Z,9.050
2024-01-24T05:43:06.240Z,9.069
2024-01-24T05:44:06.322Z,9.069
2024-01-24T05:45:06.182Z,9.106
2024-01-24T05:46:06.213Z,9.106
2024-01-24T05:47:06.214Z,9.106
2024-01-24T05:48:06.303Z,9.106
2024-01-24T05:49:06.395Z,9.106
2024-01-24T05:50:06.228Z,9.087
2024-01-24T05:51:06.244Z,9.162
2024-01-24T05:52:06.266Z,9.162
2024-01-24T05:53:06.236Z,9.125
2024-01-24T05:54:06.252Z,9.124
2024-01-24T05:55:06.277Z,9.143
2024-01-24T05:56:06.280Z,9.143
2024-01-24T05:57:06.261Z,9.143
2024-01-24T05:58:06.334Z,9.106
2024-01-24T05:59:06.268Z,9.180
2024-01-24T06:00:06.311Z,9.199
2024-01-24T06:01:06.347Z,9.199
2024-01-24T06:02:06.388Z,9.199
2024-01-24T06:03:06.296Z,9.161
2024-01-24T06:04:06.431Z,9.180
2024-01-24T06:05:06.394Z,9.180
2024-01-24T06:06:06.383Z,9.180
2024-01-24T06:07:06.394Z,9.180
2024-01-24T06:08:06.343Z,9.180
2024-01-24T06:09:06.342Z,9.217
2024-01-24T06:10:06.338Z,9.236
2024-01-24T06:11:06.338Z,9.217
2024-01-24T06:12:06.370Z,9.236
2024-01-24T06:13:06.358Z,13.55
2024-01-24T06:14:06.358Z,13.53
2024-01-24T06:15:06.357Z,13.55
2024-01-24T06:16:06.361Z,13.55
2024-01-24T06:17:06.396Z,13.58
2024-01-24T06:18:06.406Z,13.60
2024-01-24T06:19:06.443Z,13.60
2024-01-24T06:20:06.401Z,13.60
2024-01-24T06:21:06.408Z,9.463
2024-01-24T06:22:06.416Z,9.444
2024-01-24T06:23:06.434Z,9.487
2024-01-24T06:24:06.432Z,9.487
2024-01-24T06:25:07.572Z,9.487
2024-01-24T06:26:06.449Z,9.486
2024-01-24T06:27:06.453Z,9.505
2024-01-24T06:28:06.450Z,9.542
2024-01-24T06:29:06.453Z,9.566
2024-01-24T06:30:18.553Z,9.548
2024-01-24T06:31:06.492Z,9.566
2024-01-24T06:32:06.487Z,9.566
2024-01-24T06:33:06.566Z,9.566
2024-01-24T06:34:06.604Z,9.548
2024-01-24T06:35:06.522Z,9.548
2024-01-24T06:36:06.526Z,9.566
2024-01-24T06:37:06.534Z,9.571
2024-01-24T06:38:06.566Z,9.571
2024-01-24T06:39:06.542Z,9.590
2024-01-24T06:40:06.550Z,9.590
2024-01-24T06:41:06.548Z,9.590
2024-01-24T06:42:06.563Z,9.614
2024-01-24T06:43:06.587Z,9.614
2024-01-24T06:44:06.594Z,9.669
2024-01-24T06:45:06.590Z,9.669
2024-01-24T06:46:06.636Z,9.693
2024-01-24T06:47:06.619Z,9.712
2024-01-24T06:48:06.635Z,9.712
2024-01-24T06:49:06.655Z,9.693
2024-01-24T06:50:06.645Z,9.693
2024-01-24T06:51:06.645Z,9.693
2024-01-24T06:52:06.663Z,9.712
2024-01-24T06:53:06.656Z,9.730
2024-01-24T06:54:06.669Z,9.693
2024-01-24T06:55:06.657Z,9.712
2024-01-24T06:56:06.671Z,9.736
2024-01-24T06:57:06.675Z,9.754
2024-01-24T06:58:07.326Z,9.736
2024-01-24T06:59:06.704Z,9.736
2024-01-24T07:00:06.721Z,9.754
2024-01-24T07:01:06.794Z,9.754
2024-01-24T07:02:06.729Z,9.773
2024-01-24T07:03:06.774Z,9.791
2024-01-24T07:04:06.816Z,9.773
2024-01-24T07:05:06.819Z,9.773
2024-01-24T07:06:07.002Z,9.791
2024-01-24T07:07:06.847Z,9.773
2024-01-24T07:08:06.761Z,9.791
2024-01-24T07:09:06.778Z,9.791
2024-01-24T07:10:06.804Z,9.791
2024-01-24T07:11:06.801Z,9.796
2024-01-24T07:12:06.844Z,9.791
2024-01-24T07:13:06.884Z,9.773
2024-01-24T07:14:06.827Z,9.773
2024-01-24T07:15:06.831Z,9.754
2024-01-24T07:16:06.930Z,9.754
2024-01-24T07:17:06.849Z,9.754
2024-01-24T07:18:06.978Z,9.736
2024-01-24T07:19:06.967Z,9.736
2024-01-24T07:20:06.861Z,9.736
2024-01-24T07:21:06.860Z,9.754
2024-01-24T07:22:06.947Z,9.754
2024-01-24T07:23:06.894Z,9.754
2024-01-24T07:24:06.891Z,9.730
2024-01-24T07:25:06.925Z,9.730
2024-01-24T07:26:06.909Z,9.730
2024-01-24T07:27:06.924Z,9.730
2024-01-24T07:28:07.025Z,9.730
2024-01-24T07:29:06.927Z,9.730
2024-01-24T07:30:06.932Z,9.730
2024-01-24T07:31:06.947Z,9.730
2024-01-24T07:32:06.971Z,9.706
2024-01-24T07:33:06.959Z,9.706
2024-01-24T07:34:07.003Z,9.706
2024-01-24T07:35:07.163Z,9.706
2024-01-24T07:36:06.970Z,9.706
2024-01-24T07:37:07.011Z,9.706
2024-01-24T07:38:06.988Z,9.706
2024-01-24T07:39:06.989Z,9.730
2024-01-24T07:40:07.115Z,9.730
2024-01-24T07:41:07.017Z,9.730
2024-01-24T07:42:07.014Z,9.730
2024-01-24T07:43:07.026Z,9.730
2024-01-24T07:44:07.025Z,9.730
2024-01-24T07:45:07.019Z,9.730
2024-01-24T07:46:07.350Z,9.730
2024-01-24T07:47:07.049Z,9.730
2024-01-24T07:48:07.146Z,9.730
2024-01-24T07:49:07.123Z,9.730
2024-01-24T07:50:07.178Z,9.754
2024-01-24T07:51:07.104Z,9.754
2024-01-24T07:52:07.154Z,9.754
2024-01-24T07:53:07.081Z,9.778
2024-01-24T07:54:07.100Z,9.778
2024-01-24T07:55:07.135Z,9.801
2024-01-24T07:56:15.628Z,9.820
2024-01-24T07:57:07.117Z,9.862
2024-01-24T07:58:07.205Z,9.844
2024-01-24T07:59:07.111Z,9.886
2024-01-24T08:00:07.121Z,9.886
2024-01-24T08:01:07.298Z,9.868
2024-01-24T08:02:07.136Z,9.892
2024-01-24T08:03:07.158Z,9.892
2024-01-24T08:04:07.281Z,9.892
2024-01-24T08:05:07.442Z,9.929
2024-01-24T08:06:07.209Z,9.892
2024-01-24T08:07:07.190Z,9.971
2024-01-24T08:08:07.173Z,9.971
2024-01-24T08:09:09.044Z,9.995
2024-01-24T08:10:07.215Z,9.995
2024-01-24T08:11:07.188Z,9.995
2024-01-24T08:12:07.191Z,9.995
2024-01-24T08:13:07.238Z,9.995
2024-01-24T08:14:07.210Z,9.995
2024-01-24T08:15:07.216Z,9.995
2024-01-24T08:16:07.247Z,10.02
2024-01-24T08:17:07.234Z,10.02
2024-01-24T08:18:07.280Z,10.02
2024-01-24T08:19:07.493Z,10.02
2024-01-24T08:20:07.293Z,10.02
2024-01-24T08:21:08.793Z,10.04
2024-01-24T08:22:07.425Z,10.06
2024-01-24T08:23:07.262Z,10.06
2024-01-24T08:24:07.271Z,10.06
2024-01-24T08:25:07.281Z,10.08
2024-01-24T08:26:07.295Z,10.06
2024-01-24T08:27:07.412Z,10.06
2024-01-24T08:28:07.334Z,10.04
2024-01-24T08:29:07.312Z,10.06
2024-01-24T08:30:07.475Z,10.07
2024-01-24T08:31:07.347Z,10.09
2024-01-24T08:32:07.710Z,10.07
2024-01-24T08:33:07.439Z,10.11
2024-01-24T08:34:07.497Z,10.13
2024-01-24T08:35:07.374Z,10.11
2024-01-24T08:36:07.381Z,10.11
2024-01-24T08:37:07.362Z,10.09
2024-01-24T08:38:07.365Z,10.09
2024-01-24T08:39:07.385Z,10.11
2024-01-24T08:40:07.378Z,10.09
2024-01-24T08:41:07.386Z,10.06
2024-01-24T08:42:07.396Z,10.06
2024-01-24T08:43:07.452Z,10.06
2024-01-24T08:44:07.395Z,10.06
2024-01-24T08:45:07.399Z,10.06
2024-01-24T08:46:07.446Z,10.05
2024-01-24T08:47:07.425Z,10.06
2024-01-24T08:48:07.450Z,10.08
2024-01-24T08:49:07.515Z,10.11
2024-01-24T08:50:07.526Z,10.11
2024-01-24T08:51:07.462Z,10.11
2024-01-24T08:52:07.505Z,10.12
2024-01-24T08:53:07.469Z,10.12
2024-01-24T08:54:07.485Z,10.12
2024-01-24T08:55:07.579Z,10.09
2024-01-24T08:56:07.476Z,10.12
2024-01-24T08:57:07.510Z,10.11
2024-01-24T08:58:07.593Z,10.11
2024-01-24T08:59:07.512Z,10.11
2024-01-24T09:00:07.501Z,10.11
2024-01-24T09:01:07.612Z,10.14
2024-01-24T09:02:07.647Z,10.16
2024-01-24T09:03:07.582Z,10.17
2024-01-24T09:04:07.640Z,10.16
2024-01-24T09:05:07.590Z,10.16
2024-01-24T09:06:07.580Z,10.16
2024-01-24T09:07:07.627Z,10.14
2024-01-24T09:08:07.559Z,10.16
2024-01-24T09:09:07.641Z,10.16
2024-01-24T09:10:07.634Z,10.16
2024-01-24T09:11:07.564Z,10.14
2024-01-24T09:12:07.586Z,10.16
2024-01-24T09:13:07.684Z,10.14
2024-01-24T09:14:07.604Z,10.16
2024-01-24T09:15:07.604Z,10.14
2024-01-24T09:16:07.720Z,10.16
2024-01-24T09:17:07.625Z,10.16
2024-01-24T09:18:07.690Z,10.14
2024-01-24T09:19:07.715Z,10.14
2024-01-24T09:20:07.828Z,10.16
2024-01-24T09:21:07.624Z,10.16
2024-01-24T09:22:07.659Z,10.19
2024-01-24T09:23:07.657Z,10.17
2024-01-24T09:24:07.658Z,10.19
2024-01-24T09:25:09.030Z,10.19
2024-01-24T09:26:07.677Z,10.17
2024-01-24T09:27:07.687Z,10.19
2024-01-24T09:28:07.738Z,10.19
2024-01-24T09:29:07.702Z,10.22
2024-01-24T09:30:07.714Z,10.24
2024-01-24T09:31:07.709Z,10.24
2024-01-24T09:32:07.707Z,10.26
2024-01-24T09:33:07.857Z,10.24
2024-01-24T09:34:07.960Z,10.26
2024-01-24T09:35:07.979Z,10.26
2024-01-24T09:36:07.745Z,10.26
2024-01-24T09:37:07.749Z,10.26
2024-01-24T09:38:07.767Z,10.28
2024-01-24T09:39:07.779Z,10.30
2024-01-24T09:40:08.084Z,10.31
2024-01-24T09:41:07.817Z,10.37
2024-01-24T09:42:07.801Z,10.42
2024-01-24T09:43:07.909Z,10.53
2024-01-24T09:44:07.820Z,10.61
2024-01-24T09:45:08.576Z,10.74
2024-01-24T09:46:07.832Z,10.83
2024-01-24T09:47:07.828Z,10.86
2024-01-24T09:48:07.892Z,10.86
2024-01-24T09:49:07.955Z,10.81
2024-01-24T09:50:07.841Z,10.77
2024-01-24T09:51:07.856Z,10.72
2024-01-24T09:52:07.903Z,10.70
2024-01-24T09:53:07.869Z,10.67
2024-01-24T09:54:07.872Z,10.65
2024-01-24T09:55:08.024Z,10.70
2024-01-24T09:56:07.927Z,10.76
2024-01-24T09:57:08.000Z,10.79
2024-01-24T09:58:10.281Z,10.82
2024-01-24T09:59:07.890Z,10.84
2024-01-24T10:00:07.898Z,10.81
2024-01-24T10:01:08.053Z,10.81
2024-01-24T10:02:07.920Z,10.81
2024-01-24T10:03:07.981Z,10.78
2024-01-24T10:04:08.154Z,10.76
2024-01-24T10:05:07.945Z,10.76
2024-01-24T10:06:08.047Z,10.74
2024-01-24T10:07:08.091Z,10.71
2024-01-24T10:08:07.997Z,10.71
2024-01-24T10:09:09.129Z,10.69
2024-01-24T10:10:08.273Z,10.69
2024-01-24T10:11:07.984Z,10.66
2024-01-24T10:12:07.997Z,10.66
2024-01-24T10:13:08.065Z,10.66
2024-01-24T10:14:08.008Z,10.64
2024-01-24T10:15:08.016Z,10.64
2024-01-24T10:16:09.967Z,10.64
2024-01-24T10:17:08.032Z,10.70
2024-01-24T10:18:08.150Z,10.72
2024-01-24T10:19:08.110Z,10.70
2024-01-24T10:20:08.058Z,10.70
2024-01-24T10:21:08.085Z,10.70
2024-01-24T10:22:10.601Z,10.72
2024-01-24T10:23:08.083Z,10.70
2024-01-24T10:24:08.079Z,10.66
2024-01-24T10:25:08.191Z,10.68
2024-01-24T10:26:08.136Z,10.68
2024-01-24T10:27:08.105Z,10.66
2024-01-24T10:28:08.147Z,10.66
2024-01-24T10:29:08.119Z,10.68
2024-01-24T10:30:08.125Z,10.68
2024-01-24T10:31:08.202Z,10.66
2024-01-24T10:32:08.148Z,10.64
2024-01-24T10:33:08.247Z,10.65
2024-01-24T10:34:08.330Z,10.65
2024-01-24T10:35:08.302Z,10.61
2024-01-24T10:36:14.572Z,10.63
2024-01-24T10:37:08.197Z,10.65
2024-01-24T10:38:08.184Z,10.62
2024-01-24T10:39:08.182Z,10.58
2024-01-24T10:40:08.216Z,10.50
2024-01-24T10:41:08.205Z,10.50
2024-01-24T10:42:11.908Z,10.42
2024-01-24T10:43:08.294Z,10.38
2024-01-24T10:44:08.321Z,10.37
2024-01-24T10:45:08.245Z,10.31
2024-01-24T10:46:08.300Z,10.29
2024-01-24T10:47:08.260Z,10.24
2024-01-24T10:48:08.333Z,10.16
2024-01-24T10:49:08.370Z,10.08
2024-01-24T10:50:08.362Z,10.06
2024-01-24T10:51:08.282Z,10.06
2024-01-24T10:52:08.326Z,10.13
2024-01-24T10:53:08.290Z,10.20
2024-01-24T10:54:08.297Z,10.20
2024-01-24T10:55:08.432Z,10.29
2024-01-24T10:56:08.319Z,10.46
2024-01-24T10:57:08.328Z,10.55
2024-01-24T10:58:09.568Z,10.58
2024-01-24T10:59:08.358Z,10.63
2024-01-24T11:00:08.382Z,10.69
2024-01-24T11:01:08.465Z,10.69
2024-01-24T11:02:08.375Z,10.72
2024-01-24T11:03:08.489Z,10.70
2024-01-24T11:04:10.105Z,10.65
2024-01-24T11:05:08.404Z,10.62
2024-01-24T11:06:08.439Z,10.62
2024-01-24T11:07:08.474Z,10.61
2024-01-24T11:08:08.405Z,10.57
2024-01-24T11:09:08.407Z,10.53
2024-01-24T11:10:10.512Z,10.55
2024-01-24T11:11:08.429Z,10.58
2024-01-24T11:12:08.432Z,10.60
2024-01-24T11:13:08.514Z,10.60
2024-01-24T11:14:08.448Z,10.58
2024-01-24T11:15:08.452Z,10.58
2024-01-24T11:16:09.667Z,10.58
2024-01-24T11:17:08.459Z,10.61
2024-01-24T11:18:08.507Z,10.63
2024-01-24T11:19:08.595Z,10.66
2024-01-24T11:20:08.575Z,10.66
2024-01-24T11:21:08.489Z,10.66
2024-01-24T11:22:13.686Z,10.69
2024-01-24T11:23:08.499Z,10.71
2024-01-24T11:24:08.529Z,10.71
2024-01-24T11:25:08.597Z,10.72
2024-01-24T11:26:08.544Z,10.74
2024-01-24T11:27:08.525Z,10.75
2024-01-24T11:28:08.550Z,10.75
2024-01-24T11:29:08.532Z,10.72
2024-01-24T11:30:08.540Z,10.72
2024-01-24T11:31:08.734Z,10.72
2024-01-24T11:32:12.174Z,10.70
2024-01-24T11:33:08.672Z,10.70
2024-01-24T11:34:08.859Z,10.76
2024-01-24T11:35:08.625Z,10.76
2024-01-24T11:36:08.648Z,10.76
2024-01-24T11:37:08.659Z,10.76
2024-01-24T11:38:16.315Z,10.74
2024-01-24T11:39:08.625Z,10.74
2024-01-24T11:40:08.743Z,10.76
2024-01-24T11:41:08.655Z,10.76
2024-01-24T11:42:08.649Z,10.76
2024-01-24T11:43:08.786Z,10.78
2024-01-24T11:44:08.664Z,10.79
2024-01-24T11:45:08.681Z,10.78
2024-01-24T11:46:09.922Z,10.78
2024-01-24T11:47:08.698Z,10.79
2024-01-24T11:48:08.748Z,10.77
2024-01-24T11:49:08.924Z,10.78
2024-01-24T11:50:08.757Z,10.78
2024-01-24T11:51:08.736Z,10.78
2024-01-24T11:52:08.835Z,10.78
2024-01-24T11:53:08.745Z,10.76
2024-01-24T11:54:08.750Z,10.78
2024-01-24T11:55:08.836Z,10.80
2024-01-24T11:56:08.824Z,10.87
2024-01-24T11:57:08.785Z,10.89
2024-01-24T11:58:08.816Z,10.89
2024-01-24T11:59:08.775Z,10.94
2024-01-24T12:00:08.782Z,10.96
2024-01-24T12:01:09.101Z,10.98
2024-01-24T12:02:08.805Z,11.01
2024-01-24T12:03:08.814Z,11.05
2024-01-24T12:04:08.899Z,11.05
2024-01-24T12:05:08.894Z,11.07
2024-01-24T12:06:08.995Z,11.06
2024-01-24T12:07:09.023Z,11.09
2024-01-24T12:08:08.837Z,11.07
2024-01-24T12:09:08.838Z,11.07
2024-01-24T12:10:08.895Z,11.10
2024-01-24T12:11:08.882Z,11.10
2024-01-24T12:12:08.881Z,11.10
2024-01-24T12:13:08.915Z,11.10
2024-01-24T12:14:08.910Z,11.10
2024-01-24T12:15:08.908Z,11.10
2024-01-24T12:16:09.064Z,11.10
2024-01-24T12:17:08.934Z,11.12
2024-01-24T12:18:09.025Z,11.12
2024-01-24T12:19:09.051Z,11.10
2024-01-24T12:20:09.014Z,11.10
2024-01-24T12:21:08.952Z,11.10
2024-01-24T12:22:09.021Z,11.10
2024-01-24T12:23:08.950Z,11.10
2024-01-24T12:24:08.959Z,11.10
2024-01-24T12:25:09.046Z,11.12
2024-01-24T12:26:09.012Z,11.12
2024-01-24T12:27:09.018Z,11.10
2024-01-24T12:28:09.094Z,11.10
2024-01-24T12:29:09.016Z,11.10
2024-01-24T12:30:11.156Z,11.10
2024-01-24T12:31:09.079Z,11.10
2024-01-24T12:32:09.029Z,11.10
2024-01-24T12:33:09.128Z,11.07
2024-01-24T12:34:09.171Z,11.07
2024-01-24T12:35:09.236Z,11.07
2024-01-24T12:36:09.056Z,11.07
2024-01-24T12:37:09.085Z,11.09
2024-01-24T12:38:09.066Z,11.09
2024-01-24T12:39:09.097Z,11.09
2024-01-24T12:40:09.156Z,11.09
2024-01-24T12:41:09.103Z,11.07
2024-01-24T12:42:09.109Z,11.07
2024-01-24T12:43:09.140Z,11.09
2024-01-24T12:44:09.122Z,11.07
2024-01-24T12:45:09.135Z,11.07
2024-01-24T12:46:10.470Z,11.05
2024-01-24T12:47:09.135Z,11.05
2024-01-24T12:48:09.223Z,11.07
2024-01-24T12:49:09.238Z,11.07
2024-01-24T12:50:09.300Z,11.07
2024-01-24T12:51:09.312Z,11.02
2024-01-24T12:52:09.242Z,11.00